Time;durP1;ratioP1;P1;durP2;ratioP2;P2;SDS_P1;SDS_P2;PMS_P1;PMS_P2;Temp;Humidity;BMP_temperature;BMP_pressure;BME280_temperature;BME280_humidity;BME280_pressure;Samples;Min_cycle;Max_cycle;Signal;HPM_P1;HPM_P2
2021/11/22 00:00:33;;;;;;;17.00;11.27;;;;;;;1.64;100.00;95922.66;5011208;28;20111;-72
2021/11/22 00:03:03;;;;;;;23.83;14.10;;;;;;;1.60;100.00;95921.19;5004667;28;20033;-72
2021/11/22 00:05:28;;;;;;;20.50;12.73;;;;;;;1.68;100.00;95922.41;5036048;28;20022;-72
2021/11/22 00:07:54;;;;;;;20.00;13.13;;;;;;;1.66;100.00;95925.13;5025534;28;20031;-72
2021/11/22 00:10:20;;;;;;;21.07;13.53;;;;;;;1.69;100.00;95913.69;5023605;28;20037;-72
2021/11/22 00:12:47;;;;;;;20.30;12.47;;;;;;;1.70;100.00;95916.16;5035966;28;20032;-72
2021/11/22 00:15:15;;;;;;;19.60;13.30;;;;;;;1.65;100.00;95919.09;5035556;28;20041;-72
2021/11/22 00:17:41;;;;;;;17.70;11.50;;;;;;;1.63;100.00;95926.16;4991914;28;20052;-71
2021/11/22 00:20:10;;;;;;;20.70;12.37;;;;;;;1.60;100.00;95931.56;5008991;28;20029;-72
2021/11/22 00:22:36;;;;;;;17.87;11.20;;;;;;;1.61;100.00;95928.06;5001784;28;20085;-72
2021/11/22 00:25:03;;;;;;;19.47;12.83;;;;;;;1.62;100.00;95926.28;4994669;28;20482;-72
2021/11/22 00:27:29;;;;;;;21.70;13.30;;;;;;;1.59;100.00;95934.28;4993635;28;20053;-72
2021/11/22 00:29:58;;;;;;;20.90;13.40;;;;;;;1.58;100.00;95932.63;5009330;28;20091;-73
2021/11/22 00:32:37;;;;;;;23.17;12.90;;;;;;;1.61;100.00;95932.38;5014359;28;20037;-73
2021/11/22 00:35:32;;;;;;;21.53;12.43;;;;;;;1.61;100.00;95932.38;5011315;28;20029;-73
2021/11/22 00:38:00;;;;;;;19.80;12.03;;;;;;;1.60;100.00;95943.69;5029665;28;20068;-73
2021/11/22 00:40:26;;;;;;;19.63;11.57;;;;;;;1.58;100.00;95951.59;5011395;28;20059;-73
2021/11/22 00:42:52;;;;;;;22.87;13.03;;;;;;;1.57;100.00;95949.09;5028677;28;20175;-73
2021/11/22 00:45:19;;;;;;;22.83;12.87;;;;;;;1.53;100.00;95951.09;5014235;28;20034;-73
2021/11/22 00:47:45;;;;;;;21.50;12.90;;;;;;;1.56;100.00;95953.47;5010142;28;20034;-73
2021/11/22 00:50:11;;;;;;;20.00;12.13;;;;;;;1.51;100.00;95958.16;5028302;28;20100;-73
2021/11/22 00:52:37;;;;;;;20.40;12.37;;;;;;;1.60;100.00;95962.66;5036909;28;20164;-73
2021/11/22 00:55:04;;;;;;;20.10;12.67;;;;;;;1.58;100.00;95966.31;5017133;28;20188;-73
2021/11/22 00:57:30;;;;;;;21.03;12.17;;;;;;;1.60;100.00;95962.66;5029233;28;20084;-74
2021/11/22 00:59:56;;;;;;;20.10;11.63;;;;;;;1.59;100.00;95961.03;5016715;28;20489;-73
2021/11/22 01:02:24;;;;;;;20.40;12.80;;;;;;;1.63;100.00;95967.63;5035221;28;20723;-73
2021/11/22 01:04:50;;;;;;;19.27;12.10;;;;;;;1.63;100.00;95972.81;5014072;28;20009;-73
2021/11/22 01:07:15;;;;;;;21.93;13.03;;;;;;;1.70;100.00;95977.56;5017946;28;20520;-73
2021/11/22 01:09:41;;;;;;;20.73;12.97;;;;;;;1.62;100.00;95978.13;5038846;28;20030;-74
2021/11/22 01:12:07;;;;;;;22.33;12.63;;;;;;;1.60;100.00;95978.22;5020942;28;20068;-73
2021/11/22 01:14:34;;;;;;;24.07;12.90;;;;;;;1.61;100.00;95977.31;5009051;28;20036;-72
2021/11/22 01:17:00;;;;;;;21.30;12.80;;;;;;;1.64;100.00;95984.84;4997272;28;20051;-73
2021/11/22 01:19:26;;;;;;;22.10;12.57;;;;;;;1.64;100.00;95990.03;5008498;28;20489;-73
2021/11/22 01:21:53;;;;;;;24.53;12.93;;;;;;;1.68;100.00;95987.19;5020639;28;20029;-73
2021/11/22 01:24:18;;;;;;;24.33;14.37;;;;;;;1.68;100.00;95984.59;5005243;28;20025;-73
2021/11/22 01:26:44;;;;;;;23.37;13.60;;;;;;;1.73;100.00;95982.53;5029689;28;20033;-73
2021/11/22 01:29:10;;;;;;;22.57;12.63;;;;;;;1.71;100.00;95982.66;5000299;28;20030;-73
2021/11/22 01:31:35;;;;;;;21.47;13.00;;;;;;;1.70;100.00;95991.34;5037751;28;20044;-72
2021/11/22 01:34:01;;;;;;;26.17;15.33;;;;;;;1.61;100.00;95990.25;5014777;28;20078;-73
2021/11/22 01:36:27;;;;;;;26.80;14.57;;;;;;;1.67;100.00;95991.56;5011735;28;20033;-72
2021/11/22 01:38:53;;;;;;;27.67;13.80;;;;;;;1.66;100.00;95987.31;5003749;28;20018;-73
2021/11/22 01:41:18;;;;;;;25.57;13.73;;;;;;;1.67;100.00;95993.34;5010375;28;20111;-72
2021/11/22 01:43:44;;;;;;;25.10;14.50;;;;;;;1.69;100.00;95999.25;5021798;28;20029;-72
2021/11/22 01:46:18;;;;;;;21.63;12.63;;;;;;;1.70;100.00;95993.13;5013877;28;20376;-72
2021/11/22 01:48:44;;;;;;;24.40;13.60;;;;;;;1.64;100.00;95996.97;5013531;28;20387;-73
2021/11/22 01:51:11;;;;;;;23.40;14.17;;;;;;;1.70;100.00;95993.13;5012836;28;20062;-73
2021/11/22 01:53:37;;;;;;;26.13;14.20;;;;;;;1.63;100.00;95992.72;5009240;28;20037;-73
2021/11/22 01:56:03;;;;;;;29.20;15.63;;;;;;;1.62;100.00;95993.69;4999950;28;20030;-73
2021/11/22 01:58:30;;;;;;;26.87;14.70;;;;;;;1.58;100.00;95989.66;5030707;28;20025;-73
2021/11/22 02:00:56;;;;;;;26.40;14.50;;;;;;;1.60;100.00;95986.00;5033256;28;20088;-75
2021/11/22 02:03:21;;;;;;;24.13;13.83;;;;;;;1.63;100.00;95984.94;5020390;28;20573;-73
2021/11/22 02:05:51;;;;;;;25.37;14.80;;;;;;;1.54;100.00;95989.06;5033645;28;20039;-73
2021/11/22 02:08:18;;;;;;;24.43;13.20;;;;;;;1.57;100.00;95987.97;5046146;28;20450;-73
2021/11/22 02:10:45;;;;;;;25.63;14.20;;;;;;;1.49;100.00;95995.50;5021150;28;20037;-73
2021/11/22 02:13:10;;;;;;;29.03;15.17;;;;;;;1.50;100.00;95997.97;5030710;28;20033;-73
2021/11/22 02:15:37;;;;;;;27.70;14.80;;;;;;;1.45;100.00;95994.88;5032958;28;20413;-73
2021/11/22 02:18:03;;;;;;;28.43;14.67;;;;;;;1.46;100.00;95996.53;5025540;28;20096;-73
2021/11/22 02:20:30;;;;;;;29.07;15.87;;;;;;;1.42;100.00;95995.91;5040082;28;20441;-73
2021/11/22 02:23:04;;;;;;;32.13;15.50;;;;;;;1.47;100.00;95986.97;5044082;28;20044;-73
2021/11/22 02:25:32;;;;;;;30.45;16.67;;;;;;;1.50;100.00;95991.94;5025222;28;20034;-72
2021/11/22 02:27:59;;;;;;;28.50;16.17;;;;;;;1.56;100.00;96000.13;4994328;28;20034;-72
2021/11/22 02:30:31;;;;;;;31.80;17.13;;;;;;;1.63;100.00;95993.56;5017509;28;20028;-72
2021/11/22 02:33:03;;;;;;;34.73;17.80;;;;;;;1.72;100.00;95991.25;5013592;28;20116;-73
2021/11/22 02:35:31;;;;;;;31.17;17.03;;;;;;;1.71;100.00;95994.75;5019769;28;20086;-73
2021/11/22 02:37:56;;;;;;;29.63;16.23;;;;;;;1.74;100.00;95990.19;5031131;28;20119;-73
2021/11/22 02:40:22;;;;;;;31.43;15.97;;;;;;;1.77;100.00;96002.09;5033094;28;20533;-73
2021/11/22 02:42:48;;;;;;;31.57;16.83;;;;;;;1.75;100.00;96001.41;5005733;28;20045;-72
2021/11/22 02:45:20;;;;;;;34.00;15.60;;;;;;;1.71;100.00;96003.38;5019107;28;20159;-72
2021/11/22 02:47:48;;;;;;;30.60;15.57;;;;;;;1.70;100.00;96003.47;5021528;28;20036;-73
2021/11/22 02:50:16;;;;;;;32.23;16.77;;;;;;;1.76;100.00;96011.66;5034217;28;20017;-73
2021/11/22 02:52:43;;;;;;;29.87;14.50;;;;;;;1.76;100.00;96013.41;5023880;28;20033;-73
2021/11/22 02:55:12;;;;;;;26.83;15.63;;;;;;;1.79;100.00;96016.63;5029982;28;20025;-72
2021/11/22 02:57:39;;;;;;;28.97;15.33;;;;;;;1.75;100.00;96012.59;5040767;28;20037;-74
2021/11/22 03:00:13;;;;;;;24.30;13.23;;;;;;;1.83;100.00;96020.63;4991751;28;20037;-73
2021/11/22 03:02:40;;;;;;;27.10;13.40;;;;;;;1.89;100.00;96019.38;5026696;28;20041;-72
2021/11/22 03:05:06;;;;;;;31.10;14.87;;;;;;;1.89;100.00;96020.19;5044020;28;20025;-72
2021/11/22 03:07:32;;;;;;;25.13;14.20;;;;;;;1.89;100.00;96022.78;5015572;28;20042;-73
2021/11/22 03:09:57;;;;;;;27.93;15.23;;;;;;;1.93;100.00;96020.78;5015862;28;20028;-72
2021/11/22 03:12:23;;;;;;;32.00;16.87;;;;;;;1.94;100.00;96030.22;5015054;28;20033;-72
2021/11/22 03:14:49;;;;;;;33.47;15.43;;;;;;;1.94;100.00;96024.22;5008553;28;20030;-72
2021/11/22 03:17:15;;;;;;;33.67;17.47;;;;;;;1.97;100.00;96026.59;5004874;28;20029;-72
2021/11/22 03:19:41;;;;;;;31.60;16.03;;;;;;;1.93;100.00;96031.16;5014480;28;20097;-72
2021/11/22 03:22:06;;;;;;;29.40;14.97;;;;;;;1.93;100.00;96031.16;5016923;28;20061;-73
2021/11/22 03:24:32;;;;;;;33.23;17.13;;;;;;;1.96;100.00;96038.72;5042964;28;20103;-73
2021/11/22 03:27:00;;;;;;;30.97;15.70;;;;;;;1.97;100.00;96040.38;5003443;28;20132;-73
2021/11/22 03:29:26;;;;;;;31.27;16.70;;;;;;;1.95;100.00;96044.88;5012079;28;20029;-72
2021/11/22 03:31:52;;;;;;;32.43;16.03;;;;;;;1.94;100.00;96043.19;5031746;28;20085;-73
2021/11/22 03:34:18;;;;;;;34.57;16.97;;;;;;;1.95;100.00;96047.47;5032275;28;20029;-73
2021/11/22 03:36:44;;;;;;;30.83;17.30;;;;;;;2.00;100.00;96045.34;4995509;28;20030;-74
2021/11/22 03:39:16;;;;;;;29.30;16.30;;;;;;;2.01;100.00;96043.56;5035647;28;20044;-73
2021/11/22 03:41:42;;;;;;;28.40;16.30;;;;;;;2.01;100.00;96049.63;5001469;28;20117;-73
2021/11/22 03:44:14;;;;;;;34.70;16.97;;;;;;;1.97;100.00;96049.94;5008287;28;20092;-73
2021/11/22 03:46:44;;;;;;;32.30;16.63;;;;;;;2.03;100.00;96052.91;5016158;28;20029;-74
2021/11/22 03:49:10;;;;;;;36.77;18.40;;;;;;;2.04;100.00;96057.16;4995836;28;20068;-72
2021/11/22 03:51:36;;;;;;;35.87;18.20;;;;;;;2.04;100.00;96054.53;5015820;28;20441;-73
2021/11/22 03:54:02;;;;;;;33.13;17.07;;;;;;;2.06;100.00;96054.44;5015980;28;20481;-72
2021/11/22 03:56:28;;;;;;;34.57;17.60;;;;;;;2.06;100.00;96062.22;5037495;28;20029;-73
2021/11/22 03:58:54;;;;;;;39.90;18.87;;;;;;;2.09;100.00;96059.41;5045851;28;20446;-73
2021/11/22 04:01:20;;;;;;;38.17;19.20;;;;;;;2.03;100.00;96059.84;5000021;28;20030;-73
2021/11/22 04:03:46;;;;;;;40.40;19.47;;;;;;;2.03;100.00;96063.28;5011830;28;20080;-72
2021/11/22 04:06:12;;;;;;;37.63;19.23;;;;;;;2.07;100.00;96062.09;5016389;28;20029;-73
2021/11/22 04:08:38;;;;;;;38.77;19.67;;;;;;;2.04;100.00;96059.72;5040131;28;20120;-72
2021/11/22 04:11:04;;;;;;;39.83;18.47;;;;;;;2.08;100.00;96063.78;5029259;28;20061;-72
2021/11/22 04:13:30;;;;;;;38.27;17.83;;;;;;;2.10;100.00;96069.69;5001354;28;20044;-72
2021/11/22 04:15:55;;;;;;;35.27;16.50;;;;;;;2.07;100.00;96075.09;5026528;28;20395;-72
2021/11/22 04:18:21;;;;;;;39.13;16.50;;;;;;;2.12;100.00;96073.00;5014342;28;20383;-73
2021/11/22 04:20:47;;;;;;;38.83;17.30;;;;;;;2.06;100.00;96073.44;5029053;28;20474;-72
2021/11/22 04:23:13;;;;;;;36.23;17.50;;;;;;;2.04;100.00;96077.06;5020016;28;20104;-73
2021/11/22 04:25:40;;;;;;;33.07;16.33;;;;;;;2.05;100.00;96084.75;5005335;28;20021;-73
2021/11/22 04:28:07;;;;;;;32.50;17.47;;;;;;;2.08;100.00;96089.72;5001764;28;20037;-73
2021/11/22 04:30:33;;;;;;;35.53;17.10;;;;;;;1.98;100.00;96091.31;5013894;28;20449;-73
2021/11/22 04:33:00;;;;;;;31.47;15.87;;;;;;;2.07;100.00;96097.59;5012560;28;20065;-72
2021/11/22 04:35:25;;;;;;;32.77;16.93;;;;;;;2.09;100.00;96096.56;5034902;28;20065;-73
2021/11/22 04:37:52;;;;;;;32.53;18.07;;;;;;;2.10;100.00;96098.22;5004552;28;20057;-73
2021/11/22 04:40:19;;;;;;;31.57;14.60;;;;;;;2.10;100.00;96106.00;5022877;28;20036;-73
2021/11/22 04:42:47;;;;;;;32.87;16.97;;;;;;;2.11;100.00;96110.25;5020930;28;20115;-73
2021/11/22 04:45:15;;;;;;;34.33;16.20;;;;;;;2.09;100.00;96113.91;5016006;28;20014;-73
2021/11/22 04:47:41;;;;;;;32.03;16.17;;;;;;;2.16;100.00;96116.88;5034681;28;20499;-73
2021/11/22 04:50:08;;;;;;;34.20;17.67;;;;;;;2.12;100.00;96114.50;5051267;28;20036;-73
2021/11/22 04:52:35;;;;;;;35.90;17.60;;;;;;;2.16;100.00;96117.69;5005224;28;20033;-72
2021/11/22 04:55:01;;;;;;;32.17;16.53;;;;;;;2.29;100.00;96121.06;5004279;28;20025;-73
2021/11/22 04:57:27;;;;;;;32.40;16.03;;;;;;;2.27;100.00;96116.91;5003620;28;20033;-73
2021/11/22 04:59:54;;;;;;;32.30;15.97;;;;;;;2.16;100.00;96116.88;5016309;28;20385;-73
2021/11/22 05:02:19;;;;;;;29.47;15.47;;;;;;;2.18;100.00;96125.34;5039335;28;20033;-73
2021/11/22 05:04:45;;;;;;;30.47;14.50;;;;;;;2.15;100.00;96120.38;5007655;28;20018;-73
2021/11/22 05:07:15;;;;;;;32.63;15.90;;;;;;;2.18;100.00;96127.94;5025889;28;20044;-73
2021/11/22 05:09:40;;;;;;;29.30;14.83;;;;;;;2.13;100.00;96129.13;5045510;28;20048;-73
2021/11/22 05:12:07;;;;;;;24.47;15.23;;;;;;;2.18;100.00;96127.94;5027353;28;20482;-73
2021/11/22 05:14:32;;;;;;;27.33;14.63;;;;;;;2.21;100.00;96123.38;5011571;28;20438;-73
2021/11/22 05:16:58;;;;;;;30.53;15.97;;;;;;;2.26;100.00;96123.06;5043454;28;20029;-73
2021/11/22 05:19:30;;;;;;;30.47;14.83;;;;;;;2.26;100.00;96125.66;5020061;28;20020;-73
2021/11/22 05:21:57;;;;;;;26.93;14.17;;;;;;;2.29;100.00;96131.44;5007061;28;20556;-73
2021/11/22 05:24:23;;;;;;;28.10;15.03;;;;;;;2.29;100.00;96126.25;5040035;28;20350;-73
2021/11/22 05:26:49;;;;;;;28.90;14.33;;;;;;;2.31;100.00;96133.91;5014344;28;20158;-72
2021/11/22 05:29:15;;;;;;;23.93;13.73;;;;;;;2.36;100.00;96131.84;5017329;28;20022;-72
2021/11/22 05:31:41;;;;;;;25.60;12.93;;;;;;;2.39;100.00;96142.00;5034574;28;20053;-73
2021/11/22 05:34:06;;;;;;;26.23;13.93;;;;;;;2.38;100.00;96129.94;5036790;28;20029;-73
2021/11/22 05:36:35;;;;;;;28.30;15.03;;;;;;;2.34;100.00;96136.28;5017775;28;20045;-74
2021/11/22 05:39:03;;;;;;;28.70;14.93;;;;;;;2.32;100.00;96133.00;5037812;28;20021;-74
2021/11/22 05:41:29;;;;;;;29.40;16.20;;;;;;;2.40;100.00;96133.25;4996261;28;20042;-74
2021/11/22 05:43:54;;;;;;;34.23;16.53;;;;;;;2.34;100.00;96141.47;4994499;28;20029;-74
2021/11/22 05:46:20;;;;;;;30.77;16.70;;;;;;;2.34;100.00;96139.72;5005315;28;20103;-74
2021/11/22 05:48:46;;;;;;;27.23;14.93;;;;;;;2.41;100.00;96144.47;5017551;28;20119;-73
2021/11/22 05:51:13;;;;;;;27.90;14.70;;;;;;;2.42;100.00;96146.97;5044568;28;20054;-74
2021/11/22 05:53:41;;;;;;;28.50;15.47;;;;;;;2.45;100.00;96158.88;5017421;28;20107;-74
2021/11/22 05:56:07;;;;;;;29.50;15.53;;;;;;;2.53;100.00;96153.97;5024905;28;20033;-74
2021/11/22 05:58:33;;;;;;;28.60;14.73;;;;;;;2.56;100.00;96159.75;5028470;28;20076;-74
2021/11/22 06:01:01;;;;;;;28.23;15.57;;;;;;;2.59;100.00;96156.13;5013122;28;20033;-74
2021/11/22 06:03:28;;;;;;;26.03;14.17;;;;;;;2.46;100.00;96161.38;5012554;28;20021;-74
2021/11/22 06:05:55;;;;;;;25.43;13.93;;;;;;;2.50;100.00;96167.16;5023309;28;20103;-74
2021/11/22 06:08:21;;;;;;;25.67;14.87;;;;;;;2.60;100.00;96166.38;5027254;28;20390;-74
2021/11/22 06:10:49;;;;;;;26.87;14.10;;;;;;;2.89;100.00;96166.00;5003045;28;20482;-74
2021/11/22 06:13:16;;;;;;;23.40;12.73;;;;;;;2.76;100.00;96173.06;5015124;28;20380;-73
2021/11/22 06:15:42;;;;;;;22.97;12.80;;;;;;;2.59;100.00;96177.72;5029530;28;20246;-73
2021/11/22 06:18:09;;;;;;;23.80;13.53;;;;;;;2.55;100.00;96178.06;5029156;28;20033;-73
2021/11/22 06:20:35;;;;;;;25.47;12.93;;;;;;;2.56;100.00;96185.72;5036951;28;20029;-74
2021/11/22 06:23:01;;;;;;;29.23;13.20;;;;;;;2.55;100.00;96178.88;4996348;28;20034;-73
2021/11/22 06:25:27;;;;;;;27.27;13.63;;;;;;;2.53;100.00;96185.94;5008107;28;20040;-74
2021/11/22 06:27:53;;;;;;;25.03;12.93;;;;;;;2.59;100.00;96190.69;5039933;28;20128;-74
2021/11/22 06:30:19;;;;;;;22.27;12.83;;;;;;;2.58;100.00;96194.22;5028606;28;20083;-73
2021/11/22 06:32:45;;;;;;;23.90;12.13;;;;;;;2.62;100.00;96200.03;5044190;28;20086;-74
2021/11/22 06:35:11;;;;;;;22.17;12.83;;;;;;;2.59;100.00;96201.06;5040738;28;20017;-74
2021/11/22 06:37:37;;;;;;;20.50;11.60;;;;;;;2.64;100.00;96202.50;5035983;28;20035;-74
2021/11/22 06:40:07;;;;;;;31.97;17.80;;;;;;;2.66;100.00;96206.66;5022283;28;20021;-74
2021/11/22 06:42:34;;;;;;;20.73;11.77;;;;;;;2.54;100.00;96205.75;5005009;28;20032;-74
2021/11/22 06:45:00;;;;;;;19.87;11.40;;;;;;;2.63;100.00;96211.25;5029853;28;20025;-73
2021/11/22 06:47:26;;;;;;;19.10;9.97;;;;;;;2.65;100.00;96214.53;5021232;28;20037;-74
2021/11/22 06:49:55;;;;;;;19.17;11.37;;;;;;;2.64;100.00;96212.88;5035842;28;20033;-74
2021/11/22 06:52:21;;;;;;;20.57;11.90;;;;;;;2.60;100.00;96218.28;5016680;28;20084;-73
2021/11/22 06:54:51;;;;;;;18.37;10.93;;;;;;;2.60;100.00;96213.09;4999735;28;20060;-74
2021/11/22 06:57:17;;;;;;;20.83;11.50;;;;;;;2.63;100.00;96216.44;5004843;28;20112;-73
2021/11/22 06:59:43;;;;;;;27.47;15.43;;;;;;;2.52;100.00;96225.81;5006837;28;20127;-73
2021/11/22 07:02:15;;;;;;;23.00;13.57;;;;;;;2.58;100.00;96224.53;5010968;28;20033;-74
2021/11/22 07:04:41;;;;;;;22.63;11.73;;;;;;;2.58;100.00;96225.38;4995946;28;20024;-74
2021/11/22 07:07:07;;;;;;;19.73;11.43;;;;;;;2.66;100.00;96230.03;5021305;28;20524;-73
2021/11/22 07:09:34;;;;;;;20.27;10.50;;;;;;;2.72;100.00;96231.34;5021571;28;20059;-74
2021/11/22 07:11:59;;;;;;;20.77;10.60;;;;;;;2.71;100.00;96234.88;5028058;28;20497;-73
2021/11/22 07:14:26;;;;;;;20.03;10.53;;;;;;;2.73;100.00;96243.38;5004059;28;20121;-74
2021/11/22 07:16:53;;;;;;;16.83;9.40;;;;;;;2.80;100.00;96249.78;5024058;28;20112;-74
2021/11/22 07:19:19;;;;;;;15.73;9.30;;;;;;;2.82;100.00;96258.31;5011750;28;20083;-75
2021/11/22 07:21:45;;;;;;;15.27;8.47;;;;;;;2.86;100.00;96253.72;5020013;28;20027;-75
2021/11/22 07:24:11;;;;;;;16.23;8.57;;;;;;;2.91;100.00;96272.38;5019997;28;20116;-75
2021/11/22 07:26:37;;;;;;;14.50;7.87;;;;;;;2.89;100.00;96275.09;5037749;28;20108;-75
2021/11/22 07:29:04;;;;;;;14.67;7.53;;;;;;;2.95;100.00;96279.88;4993330;28;20040;-75
2021/11/22 07:31:30;;;;;;;12.73;7.03;;;;;;;2.96;100.00;96283.28;5039513;28;20132;-75
2021/11/22 07:33:56;;;;;;;15.20;7.43;;;;;;;2.97;100.00;96287.53;5020895;28;20183;-75
2021/11/22 07:36:21;;;;;;;12.57;7.53;;;;;;;3.00;100.00;96292.50;5021534;28;20025;-75
2021/11/22 07:38:47;;;;;;;13.40;7.40;;;;;;;2.99;100.00;96290.84;5021784;28;20026;-74
2021/11/22 07:41:14;;;;;;;13.90;7.77;;;;;;;2.99;100.00;96294.28;5039507;28;20024;-75
2021/11/22 07:43:40;;;;;;;65.93;32.23;;;;;;;3.00;100.00;96295.94;4993820;28;20568;-75
2021/11/22 07:46:05;;;;;;;28.57;16.50;;;;;;;3.04;100.00;96301.72;5033371;28;20033;-75
2021/11/22 07:48:31;;;;;;;16.90;9.80;;;;;;;3.03;100.00;96298.31;4996382;28;20128;-75
2021/11/22 07:50:58;;;;;;;14.03;8.07;;;;;;;3.00;100.00;96297.69;4997000;28;20017;-76
2021/11/22 07:53:25;;;;;;;13.90;8.93;;;;;;;3.08;100.00;96300.56;5032396;28;20486;-75
2021/11/22 07:55:50;;;;;;;18.07;9.57;;;;;;;3.07;100.00;96304.94;5041742;28;20651;-75
2021/11/22 07:58:16;;;;;;;16.83;10.23;;;;;;;3.07;100.00;96304.94;5018949;28;20033;-75
2021/11/22 08:00:42;;;;;;;24.80;14.87;;;;;;;3.13;100.00;96313.22;5003420;28;20061;-76
2021/11/22 08:03:08;;;;;;;22.03;13.73;;;;;;;3.15;100.00;96319.97;5006404;28;20049;-75
2021/11/22 08:05:34;;;;;;;18.93;10.83;;;;;;;3.14;100.00;96315.72;5028715;28;20025;-76
2021/11/22 08:08:02;;;;;;;30.60;18.73;;;;;;;3.16;100.00;96306.03;4995245;28;20079;-75
2021/11/22 08:10:29;;;;;;;27.83;16.60;;;;;;;3.20;100.00;96304.88;5019030;28;20099;-75
2021/11/22 08:12:58;;;;;;;24.80;14.57;;;;;;;3.21;100.00;96314.31;5025229;28;20037;-75
2021/11/22 08:15:25;;;;;;;27.10;14.57;;;;;;;3.26;100.00;96308.81;5040377;28;20501;-75
2021/11/22 08:17:51;;;;;;;27.10;15.67;;;;;;;3.33;100.00;96325.59;5043423;28;20025;-75
2021/11/22 08:20:20;;;;;;;20.73;12.60;;;;;;;3.29;100.00;96334.56;5035459;28;20029;-75
2021/11/22 08:22:47;;;;;;;18.57;11.57;;;;;;;3.31;100.00;96336.09;5005667;28;20120;-75
2021/11/22 08:25:13;;;;;;;18.50;11.43;;;;;;;3.30;100.00;96341.41;5021602;28;20033;-76
2021/11/22 08:27:39;;;;;;;20.00;11.73;;;;;;;3.36;100.00;96343.56;5011315;28;20035;-75
2021/11/22 08:30:13;;;;;;;17.80;10.67;;;;;;;3.35;100.00;96348.88;5022738;28;20048;-75
2021/11/22 08:32:40;;;;;;;23.23;12.25;;;;;;;3.41;100.00;96354.44;5009247;28;20056;-75
2021/11/22 08:35:07;;;;;;;21.17;11.97;;;;;;;3.42;100.00;96360.47;5038209;28;20045;-75
2021/11/22 08:37:36;;;;;;;19.10;12.13;;;;;;;3.41;100.00;96357.06;5024655;28;20523;-76
2021/11/22 08:40:02;;;;;;;19.97;11.97;;;;;;;3.45;100.00;96366.28;5038687;28;20021;-76
2021/11/22 08:42:28;;;;;;;26.73;15.50;;;;;;;3.46;100.00;96367.13;5038032;28;20068;-76
2021/11/22 08:44:54;;;;;;;20.47;12.37;;;;;;;3.45;100.00;96368.06;5043723;28;20047;-76
2021/11/22 08:47:20;;;;;;;20.73;12.93;;;;;;;3.47;100.00;96373.97;5046744;28;20109;-75
2021/11/22 08:49:45;;;;;;;23.33;13.80;;;;;;;3.43;100.00;96378.56;5014379;28;20068;-76
2021/11/22 08:52:11;;;;;;;23.70;14.10;;;;;;;3.47;100.00;96380.00;5033532;28;20025;-76
2021/11/22 08:54:37;;;;;;;22.20;12.10;;;;;;;3.54;100.00;96386.41;5023643;28;20033;-76
2021/11/22 08:57:06;;;;;;;17.00;10.37;;;;;;;3.44;100.00;96384.59;5025948;28;20556;-75
2021/11/22 08:59:32;;;;;;;21.47;11.13;;;;;;;3.56;100.00;96388.91;5013328;28;20037;-75
2021/11/22 09:01:58;;;;;;;18.50;10.83;;;;;;;3.51;100.00;96396.22;5011518;28;20024;-76
2021/11/22 09:04:24;;;;;;;19.13;10.33;;;;;;;3.54;100.00;96396.81;5014765;28;20025;-75
2021/11/22 09:06:51;;;;;;;17.60;9.70;;;;;;;3.65;100.00;96395.19;5003679;28;20028;-76
2021/11/22 09:09:18;;;;;;;15.13;9.53;;;;;;;3.64;100.00;96403.94;5017355;28;20600;-75
2021/11/22 09:11:45;;;;;;;18.43;10.40;;;;;;;3.57;100.00;96400.97;5003972;28;20021;-76
2021/11/22 09:14:15;;;;;;;17.27;10.07;;;;;;;3.58;100.00;96413.03;5006279;28;20444;-76
2021/11/22 09:16:41;;;;;;;20.50;9.13;;;;;;;3.59;100.00;96408.63;5022502;28;20028;-76
2021/11/22 09:19:07;;;;;;;20.47;11.37;;;;;;;3.67;100.00;96416.72;5015676;28;20060;-75
2021/11/22 09:21:33;;;;;;;17.30;9.00;;;;;;;3.58;100.00;96422.59;5011986;28;20025;-76
2021/11/22 09:24:02;;;;;;;16.37;10.60;;;;;;;3.65;100.00;96423.81;5021380;28;20029;-76
2021/11/22 09:26:28;;;;;;;16.57;8.27;;;;;;;3.64;100.00;96422.16;5013914;28;20530;-75
2021/11/22 09:28:54;;;;;;;16.43;9.30;;;;;;;3.69;100.00;96426.09;5025479;28;20507;-75
2021/11/22 09:31:20;;;;;;;15.10;7.57;;;;;;;3.61;100.00;96428.41;5013382;28;20075;-74
2021/11/22 09:33:47;;;;;;;18.67;8.10;;;;;;;3.67;100.00;96435.75;4995207;28;20091;-75
2021/11/22 09:36:14;;;;;;;13.30;8.33;;;;;;;3.63;100.00;96434.34;5017146;28;20025;-76
2021/11/22 09:38:40;;;;;;;12.77;7.80;;;;;;;3.63;100.00;96431.72;5044657;28;20033;-76
2021/11/22 09:41:07;;;;;;;20.03;10.03;;;;;;;3.66;100.00;96434.13;5041738;28;20039;-75
2021/11/22 09:43:34;;;;;;;17.00;10.60;;;;;;;3.72;100.00;96443.22;5008905;28;20029;-75
2021/11/22 09:45:59;;;;;;;17.93;7.87;;;;;;;3.73;100.00;96442.28;5004838;28;20022;-74
2021/11/22 09:48:26;;;;;;;16.77;8.73;;;;;;;3.74;100.00;96438.75;5012034;28;20099;-75
2021/11/22 09:50:52;;;;;;;20.00;10.07;;;;;;;3.73;100.00;96447.50;5003682;28;20124;-75
2021/11/22 09:53:20;;;;;;;18.80;9.70;;;;;;;3.75;100.00;96440.41;5007614;28;20040;-75
2021/11/22 09:55:46;;;;;;;13.63;8.23;;;;;;;3.75;100.00;96450.81;5018184;28;20017;-75
2021/11/22 09:58:13;;;;;;;14.57;8.07;;;;;;;3.70;100.00;96452.91;5028522;28;20565;-76
2021/11/22 10:00:42;;;;;;;13.67;7.77;;;;;;;3.79;100.00;96447.06;5002234;28;20501;-75
2021/11/22 10:03:11;;;;;;;18.63;8.20;;;;;;;3.77;100.00;96457.56;5013851;28;20556;-75
2021/11/22 10:05:38;;;;;;;17.13;7.43;;;;;;;3.77;100.00;96459.34;5011372;28;20025;-75
2021/11/22 10:08:15;;;;;;;13.83;8.00;;;;;;;3.79;100.00;96462.66;5011338;28;20028;-74
2021/11/22 10:10:55;;;;;;;17.20;8.33;;;;;;;3.84;100.00;96462.31;5051222;28;20128;-74
2021/11/22 10:13:22;;;;;;;14.90;8.67;;;;;;;3.86;100.00;96463.03;5010257;28;20628;-74
2021/11/22 10:15:50;;;;;;;15.20;8.97;;;;;;;3.76;100.00;96468.09;5044901;28;20530;-74
2021/11/22 10:18:21;;;;;;;18.00;8.03;;;;;;;3.80;100.00;96461.72;5021787;28;20068;-74
2021/11/22 10:20:49;;;;;;;20.40;9.60;;;;;;;3.81;100.00;96455.56;5004289;28;20064;-73
2021/11/22 10:23:21;;;;;;;16.77;9.10;;;;;;;3.77;100.00;96460.16;5042963;28;20017;-74
2021/11/22 10:25:48;;;;;;;18.05;8.40;;;;;;;3.84;100.00;96468.34;5003096;28;20037;-74
2021/11/22 10:28:24;;;;;;;18.13;11.00;;;;;;;3.90;100.00;96470.50;5017421;28;20557;-74
2021/11/22 10:31:00;;;;;;;14.43;8.37;;;;;;;3.84;100.00;96468.34;4996808;28;20064;-74
2021/11/22 10:33:35;;;;;;;15.27;8.97;;;;;;;3.81;100.00;96473.78;5028871;28;20041;-74
2021/11/22 10:36:04;;;;;;;15.07;8.00;;;;;;;3.75;100.00;96476.81;5017136;28;20052;-74
2021/11/22 10:38:32;;;;;;;20.43;8.97;;;;;;;3.82;100.00;96472.81;5000158;28;20104;-74
2021/11/22 10:41:08;;;;;;;15.67;8.47;;;;;;;3.77;100.00;96470.56;5016571;28;20033;-73
2021/11/22 10:43:43;;;;;;;29.43;15.60;;;;;;;3.81;100.00;96473.78;5030047;28;20025;-74
2021/11/22 10:46:10;;;;;;;13.53;7.50;;;;;;;3.72;100.00;96471.81;5009508;28;20111;-74
2021/11/22 10:48:38;;;;;;;23.90;13.30;;;;;;;3.77;100.00;96475.75;5026071;28;20056;-74
2021/11/22 10:51:19;;;;;;;14.13;7.90;;;;;;;3.73;100.00;96469.13;5018625;28;20037;-74
2021/11/22 10:53:48;;;;;;;10.53;6.30;;;;;;;3.68;100.00;96479.03;5022945;28;20037;-74
2021/11/22 10:56:16;;;;;;;15.37;6.20;;;;;;;3.69;100.00;96483.31;5040890;28;20021;-74
2021/11/22 10:58:53;;;;;;;13.73;6.67;;;;;;;3.71;100.00;96477.97;5039079;28;20048;-74
2021/11/22 11:01:40;;;;;;;10.97;6.00;;;;;;;3.77;100.00;96485.34;5009044;28;20505;-74
2021/11/22 11:04:41;;;;;;;15.27;8.27;;;;;;;3.79;100.00;96486.06;5002204;28;20486;-74
2021/11/22 11:07:08;;;;;;;16.73;8.17;;;;;;;3.81;100.00;96489.38;4996902;28;20072;-75
2021/11/22 11:09:43;;;;;;;12.90;7.07;;;;;;;3.81;100.00;96485.94;5041353;28;20040;-74
2021/11/22 11:12:18;;;;;;;14.30;7.03;;;;;;;3.79;100.00;96488.69;5029267;28;20029;-74
2021/11/22 11:14:51;;;;;;;10.27;6.23;;;;;;;3.84;100.00;96490.94;5035901;28;20120;-74
2021/11/22 11:17:31;;;;;;;12.37;6.80;;;;;;;3.82;100.00;96498.00;5029220;28;20025;-74
2021/11/22 11:20:04;;;;;;;10.93;5.60;;;;;;;3.78;100.00;96497.41;5023355;28;20037;-74